Time;durP1;ratioP1;P1;durP2;ratioP2;P2;SDS_P1;SDS_P2;PMS_P1;PMS_P2;Temp;Humidity;BMP_temperature;BMP_pressure;BME280_temperature;BME280_humidity;BME280_pressure;Samples;Min_cycle;Max_cycle;Signal;HPM_P1;HPM_P2
2023/10/27 02:40:10;;;;;;;;;;;;;;;;;;;;;
2023/10/27 02:48:04;;;;;;;9.20;4.10;;;11.00;99.90;;;;;;6009596;23;20098;-91
2023/10/27 02:51:04;;;;;;;6.75;3.28;;;11.00;99.90;;;;;;6026040;23;20094;-91
2023/10/27 02:54:12;;;;;;;10.93;4.60;;;11.00;99.90;;;;;;6044341;23;20023;-91
2023/10/27 03:01:10;;;;;;;10.23;4.47;;;10.90;99.90;;;;;;5952550;23;20731;-90
2023/10/27 03:04:06;;;;;;;9.88;3.85;;;10.90;99.90;;;;;;6022202;23;20022;-89
2023/10/27 03:06:44;;;;;;;10.45;5.15;;;10.90;99.90;;;;;;6046463;23;20112;-90
2023/10/27 03:09:52;;;;;;;8.82;4.20;;;10.90;99.90;;;;;;6030433;23;20015;-90
2023/10/27 03:12:43;;;;;;;12.93;5.10;;;11.00;99.90;;;;;;6107820;23;20018;-89
2023/10/27 03:15:36;;;;;;;12.77;5.72;;;11.00;99.90;;;;;;6107344;23;20037;-90
2023/10/27 03:18:12;;;;;;;13.20;6.10;;;11.00;99.90;;;;;;6131640;23;20036;-89
2023/10/27 03:20:57;;;;;;;12.90;4.82;;;11.00;99.90;;;;;;6133586;23;20499;-90
2023/10/27 03:23:56;;;;;;;;;;;;;;;;;;;;;
2023/10/27 03:26:27;;;;;;;8.30;3.95;;;11.00;99.90;;;;;;6123677;23;20100;-89
2023/10/27 03:29:18;;;;;;;9.10;4.05;;;11.00;99.90;;;;;;6111530;23;20036;-90
2023/10/27 03:31:49;;;;;;;9.90;4.10;;;11.00;99.90;;;;;;6131563;23;20021;-90
2023/10/27 03:38:20;;;;;;;9.15;3.95;;;11.10;99.90;;;;;;6122987;23;20057;-90
2023/10/27 03:44:19;;;;;;;8.52;3.65;;;11.00;99.90;;;;;;6131997;23;20021;-90
2023/10/27 03:46:59;;;;;;;8.82;3.67;;;11.10;99.90;;;;;;6131607;23;20025;-90
2023/10/27 03:49:29;;;;;;;9.05;3.90;;;11.10;99.90;;;;;;6131570;23;20017;-90
2023/10/27 03:51:59;;;;;;;9.45;3.83;;;11.10;99.90;;;;;;6131870;23;20022;-89
2023/10/27 03:54:49;;;;;;;8.80;4.13;;;11.10;99.90;;;;;;6135831;23;20104;-90
2023/10/27 03:57:18;;;;;;;9.13;3.72;;;11.10;99.90;;;;;;6106915;23;20028;-90
2023/10/27 03:59:47;;;;;;;8.30;3.42;;;11.10;99.90;;;;;;6107479;23;20027;-89
2023/10/27 04:02:41;;;;;;;9.65;3.78;;;11.10;99.90;;;;;;6131814;23;20021;-89
2023/10/27 04:05:19;;;;;;;7.32;3.55;;;11.10;99.90;;;;;;6134042;23;20084;-88
2023/10/27 04:07:48;;;;;;;10.38;3.63;;;11.10;99.90;;;;;;6130814;23;20044;-89
2023/10/27 04:10:35;;;;;;;6.65;3.08;;;11.10;99.90;;;;;;6131566;23;20110;-89
2023/10/27 04:13:04;;;;;;;8.40;3.60;;;11.10;99.90;;;;;;6131318;23;20045;-89
2023/10/27 04:15:44;;;;;;;8.38;3.95;;;11.10;99.90;;;;;;6107063;23;20448;-88
2023/10/27 04:18:13;;;;;;;8.98;4.03;;;11.10;99.90;;;;;;6131271;23;20031;-88
2023/10/27 04:20:41;;;;;;;7.75;3.15;;;11.00;99.90;;;;;;6130646;23;20017;-89
2023/10/27 04:23:17;;;;;;;7.25;3.10;;;11.00;99.90;;;;;;6131668;23;20017;-88
2023/10/27 04:25:55;;;;;;;7.80;3.40;;;11.00;99.90;;;;;;6131850;23;20049;-87
2023/10/27 04:28:42;;;;;;;7.68;3.90;;;11.00;99.90;;;;;;6106867;23;20056;-89
2023/10/27 04:31:35;;;;;;;8.90;3.78;;;11.00;99.90;;;;;;6150243;23;20069;-88
2023/10/27 04:34:38;;;;;;;10.18;4.28;;;11.00;99.90;;;;;;6136705;23;20024;-89
2023/10/27 04:37:08;;;;;;;6.75;3.33;;;11.00;99.90;;;;;;6131191;23;20021;-89
2023/10/27 04:39:54;;;;;;;9.05;3.67;;;11.00;99.90;;;;;;6149672;23;20018;-88
2023/10/27 04:42:30;;;;;;;5.55;2.70;;;11.00;99.90;;;;;;6132759;23;20021;-88
2023/10/27 04:44:59;;;;;;;7.18;2.92;;;11.00;99.90;;;;;;6155506;23;20021;-88
2023/10/27 04:47:27;;;;;;;9.07;4.65;;;10.90;99.90;;;;;;6155203;23;20013;-89
2023/10/27 04:50:09;;;;;;;9.38;4.40;;;11.00;99.90;;;;;;6155620;23;20096;-87
2023/10/27 04:52:36;;;;;;;9.38;5.05;;;11.00;99.90;;;;;;6131144;23;20025;-87
2023/10/27 04:55:06;;;;;;;7.25;3.55;;;10.90;99.90;;;;;;6132002;23;20018;-87
2023/10/27 04:57:50;;;;;;;6.65;2.83;;;10.90;99.90;;;;;;6156129;23;20097;-87
2023/10/27 05:00:17;;;;;;;7.25;3.40;;;10.90;99.90;;;;;;6156126;23;20021;-88
2023/10/27 05:02:46;;;;;;;6.00;2.63;;;10.90;99.90;;;;;;6132335;23;20017;-87
2023/10/27 05:05:14;;;;;;;5.90;2.95;;;10.90;99.90;;;;;;6130719;23;20025;-87
2023/10/27 05:07:44;;;;;;;7.55;3.28;;;10.90;99.90;;;;;;6131103;23;20043;-87
2023/10/27 05:10:18;;;;;;;7.80;3.65;;;10.90;99.90;;;;;;6132168;23;20027;-86
2023/10/27 05:12:48;;;;;;;6.65;3.05;;;10.90;99.90;;;;;;6130408;23;20025;-88
2023/10/27 05:15:18;;;;;;;6.22;2.83;;;10.90;99.90;;;;;;6130436;23;20021;-87
2023/10/27 05:17:46;;;;;;;5.20;2.33;;;10.90;99.90;;;;;;6155522;23;20048;-87
2023/10/27 05:20:44;;;;;;;5.45;2.15;;;10.90;99.90;;;;;;6154885;23;20395;-86
2023/10/27 05:23:11;;;;;;;5.57;2.70;;;10.90;99.90;;;;;;6130716;23;20021;-88
2023/10/27 05:25:52;;;;;;;5.45;2.15;;;10.90;99.90;;;;;;6130703;23;20037;-88
2023/10/27 05:28:46;;;;;;;5.50;1.98;;;10.90;99.90;;;;;;6155025;23;20013;-87
2023/10/27 05:31:16;;;;;;;5.78;2.03;;;10.90;99.90;;;;;;6130862;23;20021;-89
2023/10/27 05:34:02;;;;;;;;;;;;;;;;;;;;;
2023/10/27 05:36:40;;;;;;;4.95;2.30;;;10.90;99.90;;;;;;6154981;23;20097;-88
2023/10/27 05:39:16;;;;;;;4.18;2.20;;;10.90;99.90;;;;;;6155813;23;20525;-87
2023/10/27 05:41:46;;;;;;;5.05;1.75;;;10.90;99.90;;;;;;6130080;23;20101;-86
2023/10/27 05:44:21;;;;;;;5.10;2.20;;;10.90;99.90;;;;;;6154188;23;20022;-85
2023/10/27 05:46:48;;;;;;;4.50;1.92;;;10.90;99.90;;;;;;6154142;23;20048;-86
2023/10/27 05:49:15;;;;;;;4.55;1.90;;;10.90;99.90;;;;;;6129603;23;20018;-85
2023/10/27 05:51:57;;;;;;;4.38;1.95;;;10.90;99.90;;;;;;6154336;23;20021;-87
2023/10/27 05:54:29;;;;;;;4.38;1.75;;;10.90;99.90;;;;;;6130345;23;20025;-87
2023/10/27 05:57:08;;;;;;;4.70;1.65;;;10.90;99.90;;;;;;6132132;23;20024;-87
2023/10/27 05:59:38;;;;;;;3.63;1.30;;;10.90;99.90;;;;;;6130597;23;20040;-86
2023/10/27 06:02:07;;;;;;;5.32;2.00;;;10.90;99.90;;;;;;6158306;23;20002;-87
2023/10/27 06:04:42;;;;;;;3.63;1.55;;;11.00;99.90;;;;;;6154775;23;20029;-87
2023/10/27 06:07:15;;;;;;;5.85;2.33;;;11.00;99.90;;;;;;6130992;23;20028;-87
2023/10/27 06:09:45;;;;;;;4.82;1.90;;;10.90;99.90;;;;;;6130679;23;20096;-86
2023/10/27 06:12:12;;;;;;;4.55;2.17;;;10.90;99.90;;;;;;6129861;23;20041;-87
2023/10/27 06:14:44;;;;;;;3.88;1.83;;;11.00;99.90;;;;;;6131519;23;20384;-87
2023/10/27 06:17:12;;;;;;;3.58;1.73;;;10.90;99.90;;;;;;6154292;23;20013;-87
2023/10/27 06:19:40;;;;;;;4.32;2.05;;;10.90;99.90;;;;;;6154152;23;20021;-87
2023/10/27 06:22:09;;;;;;;3.72;1.40;;;10.90;99.90;;;;;;6154469;23;20028;-86
2023/10/27 06:24:42;;;;;;;2.92;1.42;;;10.90;99.90;;;;;;6155287;23;20027;-86
2023/10/27 06:27:12;;;;;;;3.53;1.60;;;10.90;99.90;;;;;;6156127;23;20340;-86
2023/10/27 06:29:39;;;;;;;3.53;1.42;;;10.90;99.90;;;;;;6155714;23;20022;-86
2023/10/27 06:32:07;;;;;;;3.55;1.75;;;10.90;99.90;;;;;;6155991;23;20021;-86
2023/10/27 06:34:34;;;;;;;3.50;1.60;;;10.90;99.90;;;;;;6132360;23;20102;-87
2023/10/27 06:37:05;;;;;;;4.35;1.60;;;10.90;99.90;;;;;;6156876;23;20444;-87
2023/10/27 06:39:32;;;;;;;3.33;1.93;;;10.90;99.90;;;;;;6156195;23;20021;-87
2023/10/27 06:42:02;;;;;;;3.97;1.67;;;10.90;99.90;;;;;;6155646;23;20068;-87
2023/10/27 06:44:30;;;;;;;3.97;1.80;;;10.90;99.90;;;;;;6155874;23;20076;-87
2023/10/27 06:46:57;;;;;;;4.28;1.92;;;10.90;99.90;;;;;;6131941;23;20440;-87
2023/10/27 06:49:25;;;;;;;4.20;1.67;;;10.90;99.90;;;;;;6131445;23;20523;-86
2023/10/27 06:51:52;;;;;;;4.47;2.05;;;10.80;99.90;;;;;;6132183;23;20021;-87
2023/10/27 06:54:22;;;;;;;4.80;1.88;;;10.90;99.90;;;;;;6155671;23;20078;-86
2023/10/27 06:56:51;;;;;;;3.63;1.65;;;10.90;99.90;;;;;;6131003;23;20022;-86
2023/10/27 06:59:18;;;;;;;3.45;1.58;;;10.90;99.90;;;;;;6130930;23;20025;-85
2023/10/27 07:01:47;;;;;;;4.75;1.73;;;10.90;99.90;;;;;;6131181;23;20025;-86
2023/10/27 07:04:17;;;;;;;3.58;1.73;;;10.90;99.90;;;;;;6155327;23;20444;-87
2023/10/27 07:06:46;;;;;;;3.88;1.98;;;10.90;99.90;;;;;;6155385;23;20018;-87
2023/10/27 07:09:13;;;;;;;5.70;2.58;;;10.90;99.90;;;;;;6131044;23;20116;-87
2023/10/27 07:11:40;;;;;;;4.55;1.85;;;10.90;99.90;;;;;;6156004;23;20393;-86
2023/10/27 07:14:08;;;;;;;4.82;2.28;;;10.90;99.90;;;;;;6131418;23;20021;-86
2023/10/27 07:16:36;;;;;;;6.30;2.90;;;10.90;99.90;;;;;;6155455;23;20108;-86
2023/10/27 07:19:05;;;;;;;4.63;2.22;;;10.90;99.90;;;;;;6155878;23;20021;-87
2023/10/27 07:21:35;;;;;;;4.13;1.90;;;10.90;99.90;;;;;;6155367;23;20045;-87
2023/10/27 07:24:03;;;;;;;4.18;2.03;;;10.90;99.90;;;;;;6131434;23;20020;-87
2023/10/27 07:26:30;;;;;;;5.90;2.67;;;10.90;99.90;;;;;;6155284;23;20101;-87
2023/10/27 07:28:57;;;;;;;6.03;2.15;;;10.90;99.90;;;;;;6156178;23;20349;-88
2023/10/27 07:31:27;;;;;;;4.15;2.38;;;10.90;99.90;;;;;;6156278;23;20069;-88
2023/10/27 07:33:55;;;;;;;5.28;1.83;;;10.90;99.90;;;;;;6156392;23;20026;-88
2023/10/27 07:36:26;;;;;;;3.28;1.55;;;10.90;99.90;;;;;;6131533;23;20470;-88
2023/10/27 07:39:02;;;;;;;3.75;1.58;;;10.90;99.90;;;;;;6132776;23;20457;-87
2023/10/27 07:41:34;;;;;;;6.32;3.38;;;10.90;99.90;;;;;;6130996;23;20100;-87
2023/10/27 07:44:05;;;;;;;5.15;2.35;;;11.00;99.90;;;;;;6131027;23;20018;-87
2023/10/27 07:46:32;;;;;;;4.68;1.98;;;11.00;99.90;;;;;;6155281;23;20017;-87
2023/10/27 07:49:06;;;;;;;4.10;2.00;;;11.00;99.90;;;;;;6155192;23;20018;-87
2023/10/27 07:51:39;;;;;;;3.95;2.05;;;11.00;99.90;;;;;;6154748;23;20049;-86
2023/10/27 07:54:12;;;;;;;4.97;2.25;;;11.00;99.90;;;;;;6155008;23;20056;-86
2023/10/27 07:56:39;;;;;;;4.32;2.30;;;11.00;99.90;;;;;;6130378;23;20021;-87
2023/10/27 07:59:10;;;;;;;4.05;2.10;;;11.00;99.90;;;;;;6131050;23;20028;-86
2023/10/27 08:01:45;;;;;;;4.53;2.00;;;11.10;99.90;;;;;;6131992;23;20022;-86
2023/10/27 08:04:18;;;;;;;5.15;2.13;;;11.10;99.90;;;;;;6155085;23;20017;-89
2023/10/27 08:06:51;;;;;;;4.32;1.90;;;11.10;99.90;;;;;;6155368;23;20452;-87
2023/10/27 08:09:22;;;;;;;3.35;1.50;;;11.10;99.90;;;;;;6131341;23;20026;-87
2023/10/27 08:11:50;;;;;;;4.22;2.15;;;11.10;99.90;;;;;;6131196;23;20021;-87
2023/10/27 08:14:28;;;;;;;4.25;1.80;;;11.10;99.90;;;;;;6131134;23;20032;-87
2023/10/27 08:21:09;;;;;;;4.18;1.90;;;11.20;99.90;;;;;;6083063;23;20542;-88
2023/10/27 08:23:37;;;;;;;2.88;1.23;;;11.20;99.90;;;;;;6155455;23;20018;-87
2023/10/27 08:26:05;;;;;;;4.30;1.95;;;11.20;99.90;;;;;;6130851;23;20437;-85
2023/10/27 08:29:15;;;;;;;3.83;1.75;;;11.20;99.90;;;;;;6131389;23;20017;-88
2023/10/27 08:32:03;;;;;;;3.67;1.38;;;11.20;99.90;;;;;;6120885;23;20026;-86
2023/10/27 08:38:50;;;;;;;;;;;;;;;;;;;;;
2023/10/27 08:41:45;;;;;;;4.68;1.67;;;11.20;99.90;;;;;;6149835;23;20077;-88
2023/10/27 08:44:16;;;;;;;3.83;1.60;;;11.20;99.90;;;;;;6131266;23;20018;-88
2023/10/27 08:47:30;;;;;;;;;;;;;;;;;;;;;
2023/10/27 09:03:21;;;;;;;3.13;1.50;;;11.30;99.90;;;;;;5880424;24;20037;-84
2023/10/27 09:10:50;;;;;;;;;;;;;;;;;;;;;
2023/10/27 09:28:47;;;;;;;2.97;1.38;;;11.30;99.90;;;;;;5871819;24;20058;-87
2023/10/27 09:31:56;;;;;;;3.38;1.55;;;11.30;99.90;;;;;;5882636;24;20069;-89
2023/10/27 09:35:42;;;;;;;3.28;1.40;;;11.30;99.90;;;;;;5869697;24;20107;-88
2023/10/27 09:47:16;;;;;;;;;;;;;;;;;;;;;
2023/10/27 10:09:20;;;;;;;5.72;2.70;;;11.40;99.90;;;;;;6108241;22;4762772;-86
2023/10/27 10:11:47;;;;;;;4.03;1.88;;;11.50;99.90;;;;;;6233785;22;20019;-88
2023/10/27 10:14:37;;;;;;;3.92;2.00;;;11.50;99.90;;;;;;6258923;22;20019;-88
2023/10/27 10:17:04;;;;;;;4.40;2.00;;;11.50;99.90;;;;;;6233478;22;20023;-90
2023/10/27 10:19:49;;;;;;;3.88;2.13;;;11.50;99.90;;;;;;6234724;22;20016;-87
2023/10/27 10:22:39;;;;;;;4.32;1.83;;;11.50;99.90;;;;;;6258120;22;20020;-84
2023/10/27 10:25:21;;;;;;;4.60;2.33;;;11.50;99.90;;;;;;6258057;22;20023;-88
2023/10/27 10:28:07;;;;;;;4.03;2.20;;;11.50;99.90;;;;;;6232956;22;20414;-88
2023/10/27 10:30:35;;;;;;;3.30;1.48;;;11.50;99.90;;;;;;6232761;22;20025;-85
2023/10/27 10:33:19;;;;;;;2.90;1.40;;;11.50;99.90;;;;;;6232541;22;20155;-87
2023/10/27 10:35:53;;;;;;;3.45;1.63;;;11.50;99.90;;;;;;6259029;22;20020;-88
2023/10/27 10:38:22;;;;;;;3.38;1.50;;;11.60;99.90;;;;;;6235436;22;20340;-88
2023/10/27 10:40:59;;;;;;;4.28;1.90;;;11.60;99.90;;;;;;6258591;22;20023;-86
2023/10/27 10:43:32;;;;;;;2.78;1.30;;;11.60;99.90;;;;;;6257982;22;20095;-84
2023/10/27 10:46:01;;;;;;;2.80;1.20;;;11.70;99.90;;;;;;6233261;22;20016;-84
2023/10/27 10:48:30;;;;;;;3.15;1.60;;;11.70;99.90;;;;;;6232344;22;20046;-86
2023/10/27 10:51:14;;;;;;;3.50;1.23;;;11.70;99.90;;;;;;6233210;22;20102;-86
2023/10/27 10:53:53;;;;;;;2.63;1.08;;;11.80;99.90;;;;;;6257182;22;20115;-84
2023/10/27 10:56:24;;;;;;;2.95;1.40;;;11.80;99.90;;;;;;6208050;22;20026;-84
2023/10/27 10:58:51;;;;;;;3.72;1.70;;;11.80;99.90;;;;;;6232388;22;20019;-84
2023/10/27 11:01:23;;;;;;;2.63;1.50;;;11.80;99.90;;;;;;6232586;22;20027;-84
2023/10/27 11:03:52;;;;;;;3.17;1.48;;;11.90;99.90;;;;;;6233105;22;20323;-84
2023/10/27 11:06:27;;;;;;;4.15;2.10;;;11.90;99.90;;;;;;6232227;22;20110;-85
2023/10/27 11:08:55;;;;;;;4.47;2.03;;;11.90;99.90;;;;;;6227593;22;20024;-84
2023/10/27 11:11:22;;;;;;;4.25;2.22;;;12.00;99.90;;;;;;6225438;22;20066;-86
2023/10/27 11:14:14;;;;;;;4.03;1.90;;;12.00;99.90;;;;;;6237262;22;20078;-88
2023/10/27 11:16:43;;;;;;;4.07;2.08;;;11.90;99.90;;;;;;6201282;22;20103;-84
2023/10/27 11:19:17;;;;;;;3.75;1.48;;;12.00;99.90;;;;;;6225663;22;20024;-85
2023/10/27 11:21:52;;;;;;;3.55;1.52;;;12.00;99.90;;;;;;6225144;22;20496;-84
2023/10/27 11:24:19;;;;;;;3.55;1.48;;;12.00;99.90;;;;;;6225547;22;20031;-85
2023/10/27 11:26:46;;;;;;;3.30;1.58;;;12.00;99.90;;;;;;6200757;22;20027;-84
2023/10/27 11:29:19;;;;;;;3.28;1.63;;;12.10;99.90;;;;;;6226798;22;20020;-86
2023/10/27 11:31:47;;;;;;;3.15;1.50;;;12.00;99.90;;;;;;6225478;22;20030;-83
2023/10/27 11:34:35;;;;;;;3.38;1.55;;;12.00;99.90;;;;;;6207144;22;20024;-87
2023/10/27 11:38:10;;;;;;;2.88;1.42;;;12.00;99.90;;;;;;6227832;22;20070;-88
2023/10/27 11:41:59;;;;;;;2.25;0.90;;;12.00;99.90;;;;;;6167422;22;20065;-90
2023/10/27 11:45:52;;;;;;;2.72;1.23;;;12.10;99.90;;;;;;5982301;24;20100;-88
2023/10/27 11:48:48;;;;;;;1.75;0.80;;;12.10;99.90;;;;;;5957301;24;20024;-88
2023/10/27 11:52:04;;;;;;;2.33;1.20;;;12.10;99.90;;;;;;5981915;24;20429;-89
2023/10/27 11:54:41;;;;;;;3.20;1.33;;;12.10;99.90;;;;;;6123055;22;20384;-88
2023/10/27 11:57:14;;;;;;;3.47;1.10;;;12.20;99.90;;;;;;6225959;22;20020;-90
2023/10/27 11:59:43;;;;;;;2.75;1.30;;;12.20;99.90;;;;;;6226052;22;20337;-89
2023/10/27 12:02:15;;;;;;;2.42;0.90;;;12.20;99.90;;;;;;6251112;22;20019;-90
2023/10/27 12:04:56;;;;;;;2.88;1.48;;;12.20;99.90;;;;;;6227045;22;20024;-92
2023/10/27 12:08:00;;;;;;;2.58;1.50;;;12.20;99.90;;;;;;6212576;23;20031;-87
2023/10/27 12:10:34;;;;;;;2.38;1.13;;;12.20;99.90;;;;;;6170715;23;20343;-88
2023/10/27 12:13:45;;;;;;;2.80;1.33;;;12.20;99.90;;;;;;6187962;23;20021;-89
2023/10/27 12:16:34;;;;;;;2.90;1.10;;;12.20;99.90;;;;;;6215733;23;20079;-90
2023/10/27 12:19:13;;;;;;;2.05;0.75;;;12.20;99.90;;;;;;6147739;23;20077;-90
2023/10/27 12:21:45;;;;;;;2.22;0.88;;;12.20;99.90;;;;;;6160931;23;20080;-90
2023/10/27 12:24:15;;;;;;;2.28;1.05;;;12.20;99.90;;;;;;6165778;23;20161;-90
2023/10/27 12:26:49;;;;;;;2.92;1.35;;;12.20;99.90;;;;;;6165982;23;20438;-91
2023/10/27 12:29:53;;;;;;;1.95;1.00;;;12.20;99.90;;;;;;6165314;23;20032;-90
2023/10/27 12:32:32;;;;;;;2.00;0.95;;;12.20;99.90;;;;;;6158958;23;20020;-92
2023/10/27 12:35:11;;;;;;;2.10;0.70;;;12.10;99.90;;;;;;6167709;23;20020;-89
2023/10/27 12:38:12;;;;;;;2.17;0.90;;;12.10;99.90;;;;;;6123524;23;20024;-89
2023/10/27 12:41:01;;;;;;;2.13;0.90;;;12.10;99.90;;;;;;6162115;23;20028;-91
2023/10/27 12:43:46;;;;;;;2.35;0.80;;;12.20;99.90;;;;;;6194251;23;20504;-90
2023/10/27 12:46:45;;;;;;;1.80;0.82;;;12.20;99.90;;;;;;6159282;23;20024;-89
2023/10/27 12:49:58;;;;;;;2.90;1.08;;;12.30;99.90;;;;;;6166955;23;20079;-89
2023/10/27 12:52:40;;;;;;;2.45;1.25;;;12.30;99.90;;;;;;6164152;23;20478;-90
2023/10/27 12:55:13;;;;;;;1.48;0.70;;;12.30;99.90;;;;;;6167301;23;20031;-90
2023/10/27 12:57:41;;;;;;;1.20;0.60;;;12.40;99.90;;;;;;6165957;23;20027;-91
2023/10/27 13:00:29;;;;;;;2.00;0.80;;;12.40;99.90;;;;;;6148644;23;20047;-90
2023/10/27 13:03:29;;;;;;;1.48;0.70;;;12.30;99.90;;;;;;6167834;23;20012;-89
2023/10/27 13:06:15;;;;;;;1.60;0.75;;;12.30;99.90;;;;;;6169019;23;20016;-88
2023/10/27 13:08:42;;;;;;;1.40;0.57;;;12.30;99.90;;;;;;6198687;22;20042;-90
2023/10/27 13:11:09;;;;;;;1.77;0.63;;;12.40;99.90;;;;;;6203271;22;20089;-89
2023/10/27 13:13:47;;;;;;;1.45;0.60;;;12.30;99.90;;;;;;6225809;22;20019;-89
2023/10/27 13:16:31;;;;;;;0.77;0.38;;;12.40;99.90;;;;;;6250565;22;20046;-88
2023/10/27 13:18:58;;;;;;;1.13;0.30;;;12.40;99.90;;;;;;6225385;22;20020;-88
2023/10/27 13:21:40;;;;;;;1.48;0.57;;;12.40;99.90;;;;;;6251150;22;20034;-88
2023/10/27 13:24:35;;;;;;;0.85;0.28;;;12.40;99.90;;;;;;6202006;22;20050;-89
2023/10/27 13:27:15;;;;;;;1.38;0.40;;;12.30;99.90;;;;;;6226684;22;20031;-89
2023/10/27 13:30:25;;;;;;;0.25;0.20;;;12.30;99.90;;;;;;6220101;22;20054;-89
2023/10/27 13:33:17;;;;;;;0.68;0.30;;;12.20;99.90;;;;;;6222127;22;20023;-92
2023/10/27 13:36:04;;;;;;;0.50;0.20;;;12.20;99.90;;;;;;6250558;22;20024;-93
2023/10/27 13:38:51;;;;;;;0.68;0.30;;;12.30;99.90;;;;;;6224718;22;20012;-89
2023/10/27 13:41:34;;;;;;;0.77;0.40;;;12.30;99.90;;;;;;6228078;22;20086;-89
2023/10/27 13:45:10;;;;;;;0.90;0.28;;;12.20;99.90;;;;;;6179721;22;20123;-93
2023/10/27 13:48:06;;;;;;;1.27;0.50;;;12.20;99.90;;;;;;6138487;22;20087;-88
2023/10/27 14:00:53;;;;;;;;;;;;;;;;;;;;;
2023/10/27 14:08:02;;;;;;;0.77;0.20;;;11.90;99.90;;;;;;6091044;23;19913;-90
2023/10/27 14:14:47;;;;;;;1.10;0.40;;;11.90;99.90;;;;;;6087401;23;20030;-92
2023/10/27 14:17:41;;;;;;;0.60;0.25;;;11.90;99.90;;;;;;6066698;23;20488;-94
2023/10/27 14:20:11;;;;;;;1.02;0.20;;;11.80;99.90;;;;;;6095563;23;20140;-88
2023/10/27 14:22:46;;;;;;;0.77;0.30;;;11.80;99.90;;;;;;6118930;23;20022;-92
2023/10/27 14:25:13;;;;;;;1.30;0.20;;;11.90;99.90;;;;;;6075830;23;20018;-88
2023/10/27 14:27:41;;;;;;;0.52;0.10;;;11.90;99.90;;;;;;6100821;23;20029;-89
2023/10/27 14:30:10;;;;;;;0.43;0.20;;;11.90;99.90;;;;;;6122892;23;20049;-90
2023/10/27 14:32:37;;;;;;;0.90;0.30;;;11.90;99.90;;;;;;6158780;23;20103;-89
2023/10/27 14:35:05;;;;;;;0.28;0.15;;;11.90;99.90;;;;;;6158127;23;20025;-85
2023/10/27 14:37:35;;;;;;;0.75;0.30;;;11.90;99.90;;;;;;6133288;23;20095;-86
2023/10/27 14:40:04;;;;;;;0.68;0.30;;;11.90;99.90;;;;;;6157528;23;20021;-88
2023/10/27 14:42:31;;;;;;;0.82;0.40;;;11.90;99.90;;;;;;6134583;23;20025;-84
2023/10/27 14:44:58;;;;;;;1.00;0.50;;;11.90;99.90;;;;;;6142940;23;20025;-87
2023/10/27 14:47:26;;;;;;;1.15;0.47;;;11.90;99.90;;;;;;6171396;23;20107;-86
2023/10/27 14:50:10;;;;;;;1.67;0.52;;;11.80;99.90;;;;;;6199716;23;20020;-87
2023/10/27 14:52:37;;;;;;;1.15;0.40;;;11.80;99.90;;;;;;6147059;23;20023;-88
2023/10/27 14:55:05;;;;;;;1.23;0.40;;;11.90;99.90;;;;;;6221347;23;20051;-90
2023/10/27 14:57:33;;;;;;;0.90;0.40;;;11.90;99.90;;;;;;6196209;23;20020;-89
2023/10/27 15:00:02;;;;;;;1.60;0.60;;;11.90;99.90;;;;;;6220792;23;20035;-90
2023/10/27 15:02:30;;;;;;;1.92;0.50;;;12.00;99.90;;;;;;6221301;23;20078;-91
2023/10/27 15:04:57;;;;;;;1.50;0.70;;;12.00;99.90;;;;;;6172190;23;20028;-89
2023/10/27 15:07:24;;;;;;;1.13;0.50;;;12.10;99.90;;;;;;6197494;23;20016;-91
2023/10/27 15:09:54;;;;;;;2.45;0.90;;;12.10;99.90;;;;;;6192281;22;20027;-90
2023/10/27 15:12:21;;;;;;;2.15;0.73;;;12.10;99.90;;;;;;6177594;22;20030;-88
2023/10/27 15:14:53;;;;;;;1.73;0.73;;;12.10;99.90;;;;;;6201606;22;20019;-86
2023/10/27 15:17:20;;;;;;;1.80;0.75;;;12.20;99.90;;;;;;6201915;22;20015;-88
2023/10/27 15:19:47;;;;;;;2.22;0.65;;;12.20;99.90;;;;;;6226876;22;20026;-86
2023/10/27 15:22:16;;;;;;;1.60;0.60;;;12.20;99.90;;;;;;6226163;22;20453;-85
2023/10/27 15:24:43;;;;;;;1.65;0.57;;;12.20;99.90;;;;;;6176504;22;20505;-88
2023/10/27 15:27:13;;;;;;;2.15;0.63;;;12.20;99.90;;;;;;6227229;22;20019;-88
2023/10/27 15:29:40;;;;;;;1.08;0.50;;;12.20;99.90;;;;;;6226059;22;20026;-84
2023/10/27 15:32:12;;;;;;;2.33;0.70;;;12.10;99.90;;;;;;6225683;22;20011;-87
2023/10/27 15:34:39;;;;;;;1.55;0.57;;;12.20;99.90;;;;;;6178429;22;20015;-87
2023/10/27 15:37:06;;;;;;;1.48;0.47;;;12.10;99.90;;;;;;6201437;22;20446;-90
2023/10/27 15:39:33;;;;;;;1.08;0.60;;;12.10;99.90;;;;;;6225754;22;20030;-85
2023/10/27 15:42:03;;;;;;;1.80;0.70;;;12.10;99.90;;;;;;6177964;22;20394;-87
2023/10/27 15:44:30;;;;;;;2.55;1.27;;;12.10;99.90;;;;;;6226394;22;20106;-85
2023/10/27 15:46:59;;;;;;;2.28;1.02;;;12.10;99.90;;;;;;6250983;22;20019;-84
2023/10/27 15:49:26;;;;;;;4.50;1.40;;;12.10;99.90;;;;;;6200742;22;20024;-89
2023/10/27 15:51:53;;;;;;;3.50;1.48;;;12.00;99.90;;;;;;6226081;22;20020;-90
2023/10/27 15:54:20;;;;;;;4.57;2.42;;;12.00;99.90;;;;;;6225964;22;20024;-85
2023/10/27 15:56:47;;;;;;;4.40;2.63;;;12.00;99.90;;;;;;6200824;22;20327;-88
2023/10/27 15:59:15;;;;;;;4.60;2.67;;;12.00;99.90;;;;;;6199784;22;20117;-85
2023/10/27 16:01:42;;;;;;;4.55;2.75;;;11.90;99.90;;;;;;6225258;22;20016;-84
2023/10/27 16:04:09;;;;;;;4.07;2.42;;;11.90;99.90;;;;;;6200871;22;20027;-84
2023/10/27 16:06:36;;;;;;;4.10;2.38;;;11.90;99.90;;;;;;6175790;22;20073;-84
2023/10/27 16:09:05;;;;;;;3.25;1.70;;;11.90;99.90;;;;;;6195225;23;20032;-89
2023/10/27 16:11:53;;;;;;;2.80;1.52;;;11.90;99.90;;;;;;6220496;23;20469;-85
2023/10/27 16:14:20;;;;;;;2.13;1.20;;;11.90;99.90;;;;;;6209956;23;20016;-85
2023/10/27 16:16:48;;;;;;;3.17;1.35;;;11.90;99.90;;;;;;6219660;23;20029;-88
2023/10/27 16:19:16;;;;;;;1.85;0.98;;;11.80;99.90;;;;;;6220856;23;20103;-86
2023/10/27 16:21:53;;;;;;;2.47;1.25;;;11.80;99.90;;;;;;6222406;23;20510;-83
2023/10/27 16:24:21;;;;;;;2.45;1.02;;;11.90;99.90;;;;;;6245576;23;20020;-87
2023/10/27 16:26:51;;;;;;;2.30;1.05;;;11.90;99.90;;;;;;6195804;23;20020;-85
2023/10/27 16:29:18;;;;;;;2.15;1.10;;;11.80;99.90;;;;;;6184814;23;20074;-87
2023/10/27 16:31:45;;;;;;;2.92;1.25;;;11.90;99.90;;;;;;6195082;23;20024;-85
2023/10/27 16:34:16;;;;;;;4.53;2.40;;;11.90;99.90;;;;;;6220640;23;20020;-85
2023/10/27 16:37:02;;;;;;;3.78;1.95;;;11.80;99.90;;;;;;6195202;23;20023;-83
2023/10/27 16:39:29;;;;;;;3.50;1.63;;;11.90;99.90;;;;;;6243920;23;20447;-82
2023/10/27 16:41:56;;;;;;;4.15;1.90;;;11.80;99.90;;;;;;6191901;23;20465;-82
2023/10/27 16:44:23;;;;;;;3.78;1.90;;;11.80;99.90;;;;;;6185320;23;20040;-82
2023/10/27 16:46:53;;;;;;;3.42;1.95;;;11.90;99.90;;;;;;6219248;23;20071;-82
2023/10/27 16:49:21;;;;;;;2.90;1.48;;;11.90;99.90;;;;;;6219343;23;20076;-87
2023/10/27 16:51:51;;;;;;;4.15;1.27;;;11.90;99.90;;;;;;6219908;23;20027;-82
2023/10/27 16:54:21;;;;;;;4.70;2.53;;;11.90;99.90;;;;;;6194264;23;20054;-86
2023/10/27 16:56:50;;;;;;;2.72;1.48;;;11.90;99.90;;;;;;6220015;23;20016;-84
2023/10/27 16:59:19;;;;;;;4.82;1.88;;;11.90;99.90;;;;;;6219048;23;20380;-85
2023/10/27 17:01:46;;;;;;;3.38;2.00;;;11.90;99.90;;;;;;6194440;23;20370;-86
2023/10/27 17:04:15;;;;;;;5.28;2.10;;;12.00;99.90;;;;;;6183074;23;20062;-87
2023/10/27 17:06:42;;;;;;;3.55;1.80;;;12.00;99.90;;;;;;6188572;23;20027;-83
2023/10/27 17:09:11;;;;;;;3.25;1.63;;;11.90;99.90;;;;;;6200198;23;20024;-83
2023/10/27 17:11:38;;;;;;;3.67;1.55;;;11.90;99.90;;;;;;6238019;23;20024;-85
2023/10/27 17:14:07;;;;;;;3.13;1.35;;;11.90;99.90;;;;;;6218902;23;20031;-82
2023/10/27 17:16:35;;;;;;;3.30;1.70;;;11.90;99.90;;;;;;6187576;23;20020;-82
2023/10/27 17:19:02;;;;;;;3.25;1.58;;;11.90;99.90;;;;;;6234100;22;20016;-82
2023/10/27 17:21:30;;;;;;;4.05;1.85;;;11.90;99.90;;;;;;6249802;22;20015;-85
2023/10/27 17:24:19;;;;;;;3.28;1.63;;;11.90;99.90;;;;;;6250636;22;20016;-89
2023/10/27 17:26:49;;;;;;;4.40;2.30;;;11.90;99.90;;;;;;6224626;22;20023;-88
2023/10/27 17:30:10;;;;;;;3.67;1.98;;;11.80;99.90;;;;;;6249850;22;20027;-87
2023/10/27 17:34:11;;;;;;;3.95;1.75;;;11.80;99.90;;;;;;6219652;23;20024;-87
2023/10/27 17:42:08;;;;;;;;;;;;;;;;;;;;;
2023/10/27 17:46:08;;;;;;;3.70;1.38;;;11.60;99.90;;;;;;5976465;23;20044;-89
2023/10/27 17:48:43;;;;;;;5.13;1.40;;;11.60;99.90;;;;;;5981963;24;20296;-94
2023/10/27 17:51:20;;;;;;;2.97;1.58;;;11.60;99.90;;;;;;6030401;23;20050;-87
2023/10/27 17:53:50;;;;;;;3.00;1.52;;;11.70;99.90;;;;;;6107517;22;20031;-91
2023/10/27 17:56:17;;;;;;;2.55;1.50;;;11.70;99.90;;;;;;6219207;23;20442;-82
2023/10/27 17:58:44;;;;;;;2.78;1.48;;;11.70;99.90;;;;;;6270874;22;20012;-82
2023/10/27 18:01:12;;;;;;;4.65;1.85;;;11.60;99.90;;;;;;6224674;22;20429;-86
2023/10/27 18:03:40;;;;;;;3.45;1.70;;;11.60;99.90;;;;;;6224366;22;20019;-85
2023/10/27 18:06:17;;;;;;;3.83;2.00;;;11.50;99.90;;;;;;6219262;23;20016;-84
2023/10/27 18:08:44;;;;;;;3.72;1.88;;;11.40;99.90;;;;;;6218977;22;20028;-86
2023/10/27 18:11:16;;;;;;;4.03;2.00;;;11.40;99.90;;;;;;6225134;22;20023;-83
2023/10/27 18:13:43;;;;;;;3.23;1.73;;;11.30;99.90;;;;;;6276464;22;20023;-83
2023/10/27 18:16:10;;;;;;;4.53;1.73;;;11.30;99.90;;;;;;6218616;23;20032;-84
2023/10/27 18:18:37;;;;;;;3.60;1.60;;;11.20;99.90;;;;;;6218349;22;20026;-83